createdAt,value
2023-06-30T00:02:15.760Z,101101.69
2023-06-30T00:04:44.993Z,101094.50
2023-06-30T00:07:14.347Z,101094.59
2023-06-30T00:09:43.456Z,101095.81
2023-06-30T00:12:12.690Z,101093.81
2023-06-30T00:14:41.748Z,101089.72
2023-06-30T00:17:10.934Z,101084.72
2023-06-30T00:19:40.220Z,101088.22
2023-06-30T00:22:09.819Z,101081.16
2023-06-30T00:24:39.178Z,101086.88
2023-06-30T00:27:14.053Z,101081.38
2023-06-30T00:30:10.641Z,101084.22
2023-06-30T00:33:01.161Z,101078.59
2023-06-30T00:35:47.677Z,101077.03
2023-06-30T00:38:20.192Z,101079.28
2023-06-30T00:41:08.303Z,101078.06
2023-06-30T00:43:41.993Z,101080.50
2023-06-30T00:46:19.402Z,101070.78
2023-06-30T00:48:52.176Z,101072.25
2023-06-30T00:51:31.034Z,101076.78
2023-06-30T00:54:00.410Z,101065.50
2023-06-30T00:56:30.402Z,101061.38
2023-06-30T00:59:00.550Z,101064.06
2023-06-30T01:01:42.512Z,101067.88
2023-06-30T01:04:38.763Z,101064.72
2023-06-30T01:07:20.006Z,101068.00
2023-06-30T01:10:21.607Z,101073.25
2023-06-30T01:12:51.447Z,101065.19
2023-06-30T01:15:21.475Z,101059.47
2023-06-30T01:17:55.536Z,101065.19
2023-06-30T01:20:31.695Z,101064.72
2023-06-30T01:23:18.042Z,101061.56
2023-06-30T01:25:51.035Z,101066.53
2023-06-30T01:28:20.821Z,101069.78
2023-06-30T01:30:52.068Z,101069.47
2023-06-30T01:33:21.596Z,101068.38
2023-06-30T01:35:52.189Z,101067.38
2023-06-30T01:38:26.398Z,101069.41
2023-06-30T01:44:16.699Z,101061.91
2023-06-30T01:46:55.076Z,101066.09
2023-06-30T01:49:25.846Z,101058.31
2023-06-30T01:51:55.285Z,101060.63
2023-06-30T01:54:27.784Z,101064.13
2023-06-30T01:57:04.010Z,101067.34
2023-06-30T01:59:33.925Z,101063.72
2023-06-30T02:02:06.658Z,101060.47
2023-06-30T02:04:37.955Z,101053.41
2023-06-30T02:07:11.329Z,101059.59
2023-06-30T02:09:47.831Z,101045.72
2023-06-30T02:12:21.140Z,101052.63
2023-06-30T02:14:54.579Z,101057.63
2023-06-30T02:17:37.512Z,101053.53
2023-06-30T02:20:18.989Z,101065.88
2023-06-30T02:22:56.208Z,101064.63
2023-06-30T02:25:32.492Z,101074.06
2023-06-30T02:28:06.446Z,101073.91
2023-06-30T02:30:41.575Z,101081.44
2023-06-30T02:33:14.186Z,101071.59
2023-06-30T02:35:47.127Z,101074.94
2023-06-30T02:38:22.635Z,101076.09
2023-06-30T02:40:55.114Z,101078.91
2023-06-30T02:43:28.918Z,101076.31
2023-06-30T02:46:02.173Z,101086.28
2023-06-30T02:48:41.178Z,101088.72
2023-06-30T02:51:17.503Z,101091.59
2023-06-30T02:53:47.149Z,101093.47
2023-06-30T02:56:16.639Z,101094.94
2023-06-30T02:58:48.492Z,101087.22
2023-06-30T03:01:18.362Z,101085.94
2023-06-30T03:04:40.564Z,101092.94
2023-06-30T03:07:51.473Z,101093.16
2023-06-30T03:10:21.867Z,101098.41
2023-06-30T03:12:51.176Z,101101.06
2023-06-30T03:15:23.200Z,101098.44
2023-06-30T03:17:53.245Z,101105.56
2023-06-30T03:20:22.743Z,101099.84
2023-06-30T03:23:03.890Z,101107.88
2023-06-30T03:25:37.396Z,101110.69
2023-06-30T03:28:06.804Z,101104.22
2023-06-30T03:30:35.973Z,101109.66
2023-06-30T03:33:19.697Z,101107.28
2023-06-30T03:36:22.797Z,101110.06
2023-06-30T03:38:55.384Z,101113.50
2023-06-30T03:41:30.627Z,101114.38
2023-06-30T03:44:02.858Z,101119.75
2023-06-30T03:46:34.146Z,101129.13
2023-06-30T03:49:03.846Z,101124.81
2023-06-30T03:51:32.980Z,101123.47
2023-06-30T03:54:02.358Z,101128.56
2023-06-30T03:56:50.412Z,101125.28
2023-06-30T03:59:25.794Z,101133.44
2023-06-30T04:02:13.669Z,101128.31
2023-06-30T04:04:52.483Z,101135.28
2023-06-30T04:07:21.771Z,101136.06
2023-06-30T04:09:51.234Z,101139.47
2023-06-30T04:12:23.621Z,101150.81
2023-06-30T04:14:59.175Z,101143.97
2023-06-30T04:17:28.714Z,101146.94
2023-06-30T04:20:00.368Z,101151.41
2023-06-30T04:22:29.878Z,101153.03
2023-06-30T04:25:01.068Z,101161.50
2023-06-30T04:27:33.227Z,101163.66
2023-06-30T04:30:06.148Z,101159.00
2023-06-30T04:32:40.095Z,101166.19
2023-06-30T04:35:10.150Z,101160.94
2023-06-30T04:37:44.824Z,101165.28
2023-06-30T04:40:40.674Z,101173.88
2023-06-30T04:43:14.513Z,101175.78
2023-06-30T04:45:48.396Z,101168.75
2023-06-30T04:48:20.844Z,101179.84
2023-06-30T04:50:56.392Z,101191.00
2023-06-30T04:55:27.843Z,101194.66
2023-06-30T04:57:47.002Z,101194.16
2023-06-30T05:00:19.679Z,101194.84
2023-06-30T05:02:52.022Z,101194.00
2023-06-30T05:05:23.248Z,101191.88
2023-06-30T05:07:54.868Z,101196.50
2023-06-30T05:10:44.720Z,101197.47
2023-06-30T05:13:14.844Z,101204.25
2023-06-30T05:15:49.477Z,101203.88
2023-06-30T05:21:22.442Z,101207.53
2023-06-30T05:21:39.672Z,101204.13
2023-06-30T05:24:11.356Z,101201.69
2023-06-30T05:26:41.904Z,101202.97
2023-06-30T05:29:13.633Z,101205.13
2023-06-30T05:31:45.420Z,101209.63
2023-06-30T05:34:18.104Z,101208.81
2023-06-30T05:36:51.796Z,101208.97
2023-06-30T05:39:25.301Z,101212.53
2023-06-30T05:41:55.688Z,101213.94
2023-06-30T05:44:48.318Z,101219.75
2023-06-30T05:47:36.829Z,101211.88
2023-06-30T05:50:15.752Z,101216.81
2023-06-30T05:52:46.898Z,101219.28
2023-06-30T05:55:16.559Z,101214.53
2023-06-30T05:57:51.587Z,101209.09
2023-06-30T06:00:35.137Z,101216.38
2023-06-30T06:03:14.219Z,101219.97
2023-06-30T06:05:46.594Z,101219.28
2023-06-30T06:08:24.426Z,101209.94
2023-06-30T06:11:04.668Z,101219.75
2023-06-30T06:14:06.501Z,101217.28
2023-06-30T06:16:41.469Z,101214.13
2023-06-30T06:19:14.306Z,101224.94
2023-06-30T06:22:01.830Z,101223.16
2023-06-30T06:24:37.605Z,101220.34
2023-06-30T06:27:12.402Z,101226.19
2023-06-30T06:29:41.879Z,101222.34
2023-06-30T06:32:33.203Z,101216.88
2023-06-30T06:35:32.853Z,101226.53
2023-06-30T06:38:09.041Z,101236.19
2023-06-30T06:40:51.757Z,101235.41
2023-06-30T06:43:35.054Z,101232.06
2023-06-30T06:46:07.411Z,101233.53
2023-06-30T06:48:52.847Z,101240.25
2023-06-30T06:51:52.277Z,101239.50
2023-06-30T06:54:49.706Z,101239.78
2023-06-30T06:57:41.463Z,101246.31
2023-06-30T07:00:12.405Z,101253.78
2023-06-30T07:03:10.139Z,101245.63
2023-06-30T07:05:43.513Z,101245.84
2023-06-30T07:08:16.970Z,101250.94
2023-06-30T07:10:50.870Z,101243.91
2023-06-30T07:13:43.088Z,101238.13
2023-06-30T07:16:13.434Z,101245.44
2023-06-30T07:18:43.174Z,101250.19
2023-06-30T07:21:15.622Z,101250.78
2023-06-30T07:23:59.509Z,101251.53
2023-06-30T07:26:40.330Z,101255.75
2023-06-30T07:29:10.027Z,101254.19
2023-06-30T07:31:42.625Z,101254.09
2023-06-30T07:34:25.825Z,101257.38
2023-06-30T07:37:11.813Z,101251.06
2023-06-30T07:40:24.645Z,101249.50
2023-06-30T07:42:58.013Z,101256.78
2023-06-30T07:45:38.310Z,101244.81
2023-06-30T07:48:07.980Z,101252.75
2023-06-30T07:50:37.596Z,101245.66
2023-06-30T07:53:10.382Z,101250.56
2023-06-30T07:55:39.784Z,101251.78
2023-06-30T07:58:15.003Z,101250.66
2023-06-30T08:00:59.265Z,101248.72
2023-06-30T08:03:38.380Z,101245.56
2023-06-30T08:06:11.221Z,101250.31
2023-06-30T08:09:07.114Z,101250.41
2023-06-30T08:11:55.077Z,101251.69
2023-06-30T08:14:27.412Z,101248.56
2023-06-30T08:16:56.811Z,101246.31
2023-06-30T08:19:47.306Z,101253.59
2023-06-30T08:22:26.670Z,101249.50
2023-06-30T08:24:58.234Z,101259.22
2023-06-30T08:27:29.802Z,101259.19
2023-06-30T08:29:59.478Z,101262.56
2023-06-30T08:32:34.399Z,101258.88
2023-06-30T08:35:07.074Z,101262.63
2023-06-30T08:37:45.963Z,101260.19
2023-06-30T08:40:49.846Z,101259.34
2023-06-30T08:44:09.271Z,101267.78
2023-06-30T08:51:01.256Z,101266.56
2023-06-30T08:53:34.966Z,101280.31
2023-06-30T08:56:29.912Z,101266.38
2023-06-30T08:58:59.678Z,101262.81
2023-06-30T09:01:52.967Z,101273.19
2023-06-30T09:04:25.397Z,101270.81
2023-06-30T09:07:01.334Z,101270.84
2023-06-30T09:10:19.124Z,101263.75
2023-06-30T09:12:50.427Z,101271.69
2023-06-30T09:15:33.614Z,101266.97
2023-06-30T09:18:20.080Z,101267.00
2023-06-30T09:21:15.868Z,101264.69
2023-06-30T09:24:06.423Z,101267.16
2023-06-30T09:26:37.294Z,101267.56
2023-06-30T09:29:19.002Z,101267.22
2023-06-30T09:32:07.383Z,101265.59
2023-06-30T09:34:39.718Z,101269.25
2023-06-30T09:37:27.958Z,101268.06
2023-06-30T09:40:33.713Z,101264.19
2023-06-30T09:43:41.593Z,101268.19
2023-06-30T09:46:19.376Z,101279.38
2023-06-30T09:49:09.780Z,101276.97
2023-06-30T09:52:08.681Z,101279.03
2023-06-30T09:54:46.462Z,101278.63
2023-06-30T09:57:59.913Z,101279.53
2023-06-30T10:00:39.577Z,101273.16
2023-06-30T10:03:53.899Z,101282.78
2023-06-30T10:07:24.200Z,101275.66
2023-06-30T10:10:41.834Z,101271.97
2023-06-30T10:13:32.114Z,101276.34
2023-06-30T10:16:27.783Z,101276.34
2023-06-30T10:19:32.535Z,101283.59
2023-06-30T10:22:26.598Z,101270.19
2023-06-30T10:25:39.954Z,101267.69
2023-06-30T10:28:18.365Z,101274.91
2023-06-30T10:34:28.985Z,101279.31
2023-06-30T10:37:05.473Z,101284.50
2023-06-30T10:39:39.691Z,101286.56
2023-06-30T10:42:30.059Z,101290.56
2023-06-30T10:45:23.807Z,101283.41
2023-06-30T10:47:59.085Z,101285.81
2023-06-30T10:50:57.686Z,101278.22
2023-06-30T10:54:12.199Z,101286.31
2023-06-30T10:56:49.776Z,101280.78
2023-06-30T11:00:01.474Z,101292.00
2023-06-30T11:02:36.210Z,101292.31
2023-06-30T11:05:35.976Z,101295.22
2023-06-30T11:08:23.954Z,101291.56
2023-06-30T11:11:08.970Z,101293.66
2023-06-30T11:14:49.580Z,101292.88
2023-06-30T11:17:24.620Z,101298.13
2023-06-30T11:20:22.297Z,101307.28
2023-06-30T11:23:36.548Z,101300.81
2023-06-30T11:26:38.873Z,101300.41
2023-06-30T11:29:21.512Z,101298.84
2023-06-30T11:31:56.762Z,101296.94
2023-06-30T11:34:49.237Z,101305.00
2023-06-30T11:37:22.288Z,101301.84
2023-06-30T11:39:58.195Z,101297.88
2023-06-30T11:42:28.557Z,101301.13
2023-06-30T11:45:31.897Z,101298.34
2023-06-30T11:47:54.778Z,101299.47
2023-06-30T11:50:38.956Z,101297.88
2023-06-30T11:53:33.168Z,101303.47
2023-06-30T11:56:19.375Z,101299.53
2023-06-30T11:59:22.451Z,101306.72
2023-06-30T12:02:20.927Z,101319.16
2023-06-30T12:06:09.787Z,101318.38
2023-06-30T12:08:34.039Z,101302.78
2023-06-30T12:11:20.544Z,101314.34
2023-06-30T12:13:55.888Z,101305.59
2023-06-30T12:16:28.813Z,101311.56
2023-06-30T12:22:14.456Z,101329.56
2023-06-30T12:24:58.785Z,101329.19
2023-06-30T12:27:40.778Z,101331.19
2023-06-30T12:30:46.475Z,101329.16
2023-06-30T12:33:33.002Z,101340.78
2023-06-30T12:36:10.395Z,101339.59
2023-06-30T12:38:41.951Z,101344.38
2023-06-30T12:41:11.575Z,101339.63
2023-06-30T12:43:41.030Z,101338.03
2023-06-30T12:46:45.880Z,101337.63
2023-06-30T12:49:05.457Z,101339.63
2023-06-30T12:51:41.185Z,101350.00
2023-06-30T12:54:10.751Z,101351.19
2023-06-30T12:56:45.587Z,101348.78
2023-06-30T12:59:17.034Z,101351.59
2023-06-30T13:02:15.174Z,101357.59
2023-06-30T13:04:58.558Z,101360.38
2023-06-30T13:07:35.890Z,101357.59
2023-06-30T13:14:35.022Z,101367.53
2023-06-30T13:17:10.837Z,101360.84
2023-06-30T13:19:40.178Z,101359.69
2023-06-30T13:22:16.721Z,101348.38
2023-06-30T13:24:49.163Z,101355.56
2023-06-30T13:27:22.232Z,101349.09
2023-06-30T13:29:54.578Z,101345.75
2023-06-30T13:32:28.777Z,101356.09
2023-06-30T13:35:11.755Z,101360.13
2023-06-30T13:38:07.967Z,101352.91
2023-06-30T13:40:40.325Z,101354.53
2023-06-30T13:43:13.292Z,101345.72
2023-06-30T13:45:43.203Z,101337.38
2023-06-30T13:48:15.909Z,101352.13
2023-06-30T13:50:52.658Z,101354.50
2023-06-30T13:53:45.909Z,101348.91
2023-06-30T13:56:18.120Z,101358.44
2023-06-30T13:58:47.406Z,101351.66
2023-06-30T14:01:29.353Z,101360.06
2023-06-30T14:04:09.866Z,101358.44
2023-06-30T14:06:39.358Z,101352.91
2023-06-30T14:09:12.902Z,101341.63
2023-06-30T14:11:43.347Z,101348.91
2023-06-30T14:14:14.946Z,101356.88
2023-06-30T14:16:47.300Z,101349.28
2023-06-30T14:19:19.132Z,101349.06
2023-06-30T14:21:48.329Z,101340.19
2023-06-30T14:24:17.475Z,101352.66
2023-06-30T14:26:46.614Z,101354.28
2023-06-30T14:29:18.382Z,101351.50
2023-06-30T14:31:51.622Z,101357.44
2023-06-30T14:34:20.863Z,101355.91
2023-06-30T14:36:50.160Z,101342.63
2023-06-30T14:39:30.500Z,101360.16
2023-06-30T14:42:27.042Z,101361.81
2023-06-30T14:45:19.546Z,101352.13
2023-06-30T14:47:48.734Z,101356.09
2023-06-30T14:50:18.165Z,101352.09
2023-06-30T14:52:48.446Z,101345.31
2023-06-30T14:55:17.664Z,101346.44
2023-06-30T14:57:48.068Z,101345.66
2023-06-30T15:00:22.508Z,101350.38
2023-06-30T15:02:51.871Z,101354.38
2023-06-30T15:05:21.562Z,101354.31
2023-06-30T15:07:52.969Z,101352.69
2023-06-30T15:10:22.244Z,101351.81
2023-06-30T15:12:52.284Z,101355.06
2023-06-30T15:15:21.594Z,101361.47
2023-06-30T15:17:53.801Z,101360.69
2023-06-30T15:20:24.231Z,101353.25
2023-06-30T15:22:59.540Z,101363.03
2023-06-30T15:25:31.501Z,101367.59
2023-06-30T15:28:03.717Z,101370.69
2023-06-30T15:30:33.035Z,101372.44
2023-06-30T15:33:14.419Z,101367.53
2023-06-30T15:35:43.827Z,101371.44
2023-06-30T15:38:21.739Z,101373.91
2023-06-30T15:40:56.300Z,101370.88
2023-06-30T15:43:32.959Z,101368.13
2023-06-30T15:46:02.868Z,101364.41
2023-06-30T15:48:32.086Z,101364.81
2023-06-30T15:51:05.252Z,101360.28
2023-06-30T15:53:34.669Z,101364.72
2023-06-30T15:56:20.860Z,101365.47
2023-06-30T15:58:55.713Z,101374.91
2023-06-30T16:01:44.867Z,101370.88
2023-06-30T16:04:23.480Z,101372.78
2023-06-30T16:07:06.728Z,101362.69
2023-06-30T16:09:36.108Z,101367.84
2023-06-30T16:12:08.351Z,101368.81
2023-06-30T16:14:37.680Z,101371.19
2023-06-30T16:17:06.783Z,101367.53
2023-06-30T16:19:38.437Z,101361.59
2023-06-30T16:22:07.685Z,101373.47
2023-06-30T16:24:43.135Z,101374.97
2023-06-30T16:27:20.435Z,101371.66
2023-06-30T16:29:54.959Z,101365.72
2023-06-30T16:32:33.234Z,101368.16
2023-06-30T16:35:11.579Z,101372.44
2023-06-30T16:37:41.335Z,101371.13
2023-06-30T16:40:34.879Z,101380.41
2023-06-30T16:43:07.035Z,101372.16
2023-06-30T16:45:39.576Z,101372.22
2023-06-30T16:48:20.808Z,101379.84
2023-06-30T16:50:59.498Z,101375.50
2023-06-30T16:53:29.970Z,101370.03
2023-06-30T16:56:05.340Z,101373.72
2023-06-30T16:58:41.937Z,101374.66
2023-06-30T17:01:11.543Z,101369.28
2023-06-30T17:03:41.103Z,101375.13
2023-06-30T17:06:17.331Z,101372.56
2023-06-30T17:08:50.236Z,101373.22
2023-06-30T17:11:21.296Z,101370.06
2023-06-30T17:14:02.910Z,101374.16
2023-06-30T17:16:39.597Z,101361.97
2023-06-30T17:19:13.477Z,101366.88
2023-06-30T17:21:45.881Z,101353.31
2023-06-30T17:24:16.929Z,101350.56
2023-06-30T17:26:55.100Z,101347.91
2023-06-30T17:29:25.086Z,101350.22
2023-06-30T17:31:54.455Z,101352.66
2023-06-30T17:34:27.524Z,101352.66
2023-06-30T17:37:04.935Z,101361.41
2023-06-30T17:39:37.762Z,101359.03
2023-06-30T17:42:12.973Z,101352.22
2023-06-30T17:44:47.686Z,101363.41
2023-06-30T17:47:17.309Z,101343.47
2023-06-30T17:49:50.061Z,101353.59
2023-06-30T17:52:19.628Z,101348.84
2023-06-30T17:54:49.890Z,101350.84
2023-06-30T17:57:19.510Z,101342.53
2023-06-30T17:59:51.402Z,101350.22
2023-06-30T18:02:21.120Z,101340.97
2023-06-30T18:04:51.906Z,101335.25
2023-06-30T18:07:24.247Z,101341.78
2023-06-30T18:09:53.686Z,101349.00
2023-06-30T18:12:23.265Z,101341.69
2023-06-30T18:14:52.500Z,101341.22
2023-06-30T18:17:24.226Z,101338.19
2023-06-30T18:20:02.988Z,101335.72
2023-06-30T18:22:32.696Z,101337.50
2023-06-30T18:25:02.505Z,101343.63
2023-06-30T18:27:36.986Z,101338.84
2023-06-30T18:30:06.873Z,101342.75
2023-06-30T18:32:39.741Z,101338.28
2023-06-30T18:35:10.482Z,101339.41
2023-06-30T18:37:39.680Z,101336.53
2023-06-30T18:40:13.012Z,101331.72
2023-06-30T18:43:02.168Z,101333.66
2023-06-30T18:53:04.415Z,101325.91
2023-06-30T18:53:34.134Z,101331.22
2023-06-30T18:56:01.222Z,101324.50
2023-06-30T18:59:31.606Z,101327.97
2023-06-30T19:03:37.659Z,101319.13
2023-06-30T19:06:29.321Z,101327.69
2023-06-30T19:09:53.125Z,101324.84
2023-06-30T19:12:25.833Z,101313.81
2023-06-30T19:15:53.966Z,101316.34
2023-06-30T19:19:08.535Z,101310.34
2023-06-30T19:21:46.950Z,101309.88
2023-06-30T19:24:35.360Z,101317.59
2023-06-30T19:27:28.961Z,101317.59
2023-06-30T19:30:28.014Z,101310.03
2023-06-30T19:33:01.156Z,101314.44
2023-06-30T19:35:34.203Z,101317.28
2023-06-30T19:38:06.913Z,101305.22
2023-06-30T19:40:57.128Z,101309.47
2023-06-30T19:43:29.979Z,101300.28
2023-06-30T19:46:19.513Z,101306.41
2023-06-30T19:48:53.747Z,101307.13
2023-06-30T19:51:22.965Z,101309.97
2023-06-30T19:54:23.246Z,101308.31
2023-06-30T19:56:47.902Z,101298.84
2023-06-30T19:59:18.113Z,101290.75
2023-06-30T20:01:58.192Z,101296.81
2023-06-30T20:04:29.594Z,101289.22
2023-06-30T20:06:59.262Z,101297.56
2023-06-30T20:09:34.510Z,101295.44
2023-06-30T20:12:08.044Z,101299.28
2023-06-30T20:14:42.690Z,101295.47
2023-06-30T20:17:18.281Z,101294.31
2023-06-30T20:19:49.739Z,101283.28
2023-06-30T20:22:21.823Z,101286.22
2023-06-30T20:25:50.020Z,101273.56
2023-06-30T20:28:25.795Z,101281.63
2023-06-30T20:30:57.216Z,101275.88
2023-06-30T20:33:35.014Z,101269.19
2023-06-30T20:36:15.251Z,101263.50
2023-06-30T20:38:45.599Z,101262.66
2023-06-30T20:41:15.008Z,101261.38
2023-06-30T20:43:47.298Z,101259.06
2023-06-30T20:46:17.170Z,101264.63
2023-06-30T20:49:17.134Z,101250.59
2023-06-30T20:51:57.684Z,101257.56
2023-06-30T20:54:47.666Z,101248.25
2023-06-30T20:57:17.626Z,101242.13
2023-06-30T20:59:49.577Z,101241.22
2023-06-30T21:02:22.108Z,101239.94
2023-06-30T21:04:54.776Z,101236.34
2023-06-30T21:07:24.059Z,101228.41
2023-06-30T21:09:58.569Z,101230.94
2023-06-30T21:12:27.834Z,101229.53
2023-06-30T21:15:17.996Z,101224.09
2023-06-30T21:17:47.485Z,101233.16
2023-06-30T21:20:16.922Z,101224.50
2023-06-30T21:22:46.692Z,101227.25
2023-06-30T21:25:17.524Z,101227.91
2023-06-30T21:27:47.797Z,101213.22
2023-06-30T21:30:26.243Z,101211.72
2023-06-30T21:33:20.651Z,101211.56
2023-06-30T21:35:55.645Z,101212.63
2023-06-30T21:38:43.164Z,101213.66
2023-06-30T21:41:18.505Z,101210.06
2023-06-30T21:43:54.374Z,101212.09
2023-06-30T21:46:41.093Z,101203.66
2023-06-30T21:49:15.254Z,101209.72
2023-06-30T21:51:44.450Z,101203.19
2023-06-30T21:54:16.526Z,101195.75
2023-06-30T21:56:45.974Z,101204.25
2023-06-30T21:59:17.304Z,101200.03
2023-06-30T22:01:46.634Z,101191.72
2023-06-30T22:04:24.611Z,101195.28
2023-06-30T22:06:54.061Z,101197.94
2023-06-30T22:09:23.198Z,101200.09
2023-06-30T22:11:52.491Z,101204.50
2023-06-30T22:14:25.476Z,101188.81
2023-06-30T22:17:20.699Z,101187.22
2023-06-30T22:19:49.740Z,101196.00
2023-06-30T22:22:18.745Z,101177.81
2023-06-30T22:24:47.944Z,101182.69
2023-06-30T22:27:20.358Z,101181.03
2023-06-30T22:29:52.547Z,101179.94
2023-06-30T22:32:24.590Z,101175.28
2023-06-30T22:35:01.203Z,101177.28
2023-06-30T22:37:34.374Z,101180.91
2023-06-30T22:40:03.727Z,101181.41
2023-06-30T22:42:56.539Z,101174.22
2023-06-30T22:45:33.957Z,101170.56
2023-06-30T22:48:38.300Z,101174.69
2023-06-30T22:55:08.655Z,101167.50
2023-06-30T22:57:38.135Z,101166.78
2023-06-30T23:00:08.381Z,101173.72
2023-06-30T23:05:51.334Z,101161.59
2023-06-30T23:08:24.279Z,101170.78
2023-06-30T23:10:59.124Z,101162.31
2023-06-30T23:13:32.205Z,101161.28
2023-06-30T23:16:34.342Z,101158.72
2023-06-30T23:19:03.438Z,101158.78
2023-06-30T23:21:34.564Z,101160.44
2023-06-30T23:24:11.439Z,101163.28
2023-06-30T23:27:16.750Z,101163.59
2023-06-30T23:30:16.761Z,101164.53
2023-06-30T23:32:58.983Z,101160.56
2023-06-30T23:35:28.230Z,101172.34
2023-06-30T23:37:58.200Z,101167.84
2023-06-30T23:40:30.234Z,101163.34
2023-06-30T23:42:59.591Z,101168.66
2023-06-30T23:45:32.297Z,101164.50
2023-06-30T23:48:01.451Z,101160.69
2023-06-30T23:50:30.579Z,101161.28
2023-06-30T23:53:03.448Z,101161.56
2023-06-30T23:55:33.068Z,101165.38
2023-06-30T23:58:05.263Z,101165.94
